Morgan City, LA (70381)

1:17 PM CDT on July 29, 2014 (GMT -0500)
North Berwick Station (KLABERWI2) Elev 0 ft | 29.72 °N, 91.24 °W | Change Station

Current weather conditions updated 1 second ago

Overcast
Overcast
85.6 °F
Feels Like 95 °F
N
0.0
Wind Variable Wind from NE
Gusts 4.0 mph

Today is forecast to be Cooler than yesterday.

Today
High -- | Low -- °F
--% Chance of Precip.
Yesterday
High -- | Low -- °F
Precip. -- in
6:22 AM 7:59 PM
Waxing Crescent, 7% visible
Pressure 30.07 in
Visibility 10.0 miles
Clouds Overcast 4600 ft
Heat Index 95 °F
Dew Point 76 °F
Humidity 72%
Rainfall 0.00 in
Snow Depth Not available.
UV 4.0 out of 12
Pollen 3.00 out of 12
Air Quality Not available.
Flu Activity Not available.
SPECI K7R3 291738Z 34005KT 10SM OVC046 31/20 A3007

More Conditions Fewer Conditions

Pressure 30.07 in
Visibility 10.0 miles
Clouds Overcast 4600 ft
Heat Index 95 °F
Dew Point 76 °F
Humidity 72%
Rainfall 0.00 in
Snow Depth Not available.
UV 4.0 out of 12
Pollen 3.00 out of 12
Air Quality Not available.
Flu Activity Not available.
SPECI K7R3 291738Z 34005KT 10SM OVC046 31/20 A3007

More Conditions Fewer Conditions

10-Day Weather Forecast

Almanac

Astronomy

Jul. 29, 2014 Rise Set
Actual Time 6:22 AM CDT 7:59 PM CDT
Civil Twilight 5:56 AM CDT 8:25 PM CDT
Nautical Twilight 5:25 AM CDT 8:56 PM CDT
Astronomical Twilight 4:52 AM CDT 9:29 PM CDT
Moon 8:44 AM CDT 9:29 PM CDT
Length of Visible Light 14h 28m
Length of Day
13h 36m
Tomorrow will be 1m 16s shorter.
Waxing Crescent, 7% of the Moon is Illuminated
Today
Waxing Crescent
Aug 3
First Quarter
Aug 10
Full
Aug 17
Last Quarter
Aug 25
New

Today's Extremes

State Highs State Lows

Community

WunderPhotos

Upload Photos

1,738,811 photos uploaded!

WunderBlogs® & News

By Dr. Jeff Masters
Director of Meteorology, Weather Underground
By Kari Strenfel
Meteorologist, Weather Underground
By Christopher C. Burt
Weather Historian, Weather Underground
July 29, 2014
July 29, 2014
July 29, 2014

Nearby

Snow Depth

Station Depth Elevation
No new snow has been reported.

Earthquake Activity

City Distance Mag. Time & Date
No recent earthquake activity has been reported nearby.
Minimum magnitude displayed is 2.5.

Coastal Water Temperatures

Place Temperature
Amerada Pass, LA 84.0 °F
Fresh Water Canal Locks, LA 87.1 °F

Nearby Weather Stations

Station Location Temp. Heat Index Dew Point Humidity Wind Precip. Elev Updated Type
North Berwick Station, Berwick, LA 85.6 °F 95 °F 76 °F 72% NE  at  0.0 mph 0.00 in / hr 0 ft 1:17 PM CDT Rapid Fire
plattenville, Napoleonville, LA 86.7 °F 91 °F 69 °F 56% NNE  at  5.3 mph - / hr 23 ft 1:08 PM CDT Normal
USDA Sugarcane Research Unit, Schriever, LA 86.2 °F 90 °F 69 °F 57% North  at  3.0 mph 0.00 in / hr 13 ft 1:17 PM CDT Rapid Fire
Jerry's House (Schriever), Thibodaux, LA 86.0 °F 93 °F 73 °F 65% NNE  at  2.0 mph 0.00 in / hr 11 ft 1:17 PM CDT Normal

Show More Stations Show Fewer Stations